Time;durP1;ratioP1;P1;durP2;ratioP2;P2;SDS_P1;SDS_P2;PMS_P1;PMS_P2;Temp;Humidity;BMP_temperature;BMP_pressure;BME280_temperature;BME280_humidity;BME280_pressure;Samples;Min_cycle;Max_cycle;Signal;HPM_P1;HPM_P2
2023/07/20 00:00:13;;;;;;;3.27;1.93;;;19.10;99.90;;;;;;5122411;27;20633;-77
2023/07/20 00:02:40;;;;;;;3.27;2.50;;;19.00;99.90;;;;;;5123696;27;20614;-77
2023/07/20 00:05:08;;;;;;;4.30;2.80;;;18.90;99.90;;;;;;5114851;27;20543;-77
2023/07/20 00:07:34;;;;;;;3.40;1.77;;;18.80;99.90;;;;;;5127211;27;20456;-77
2023/07/20 00:10:02;;;;;;;4.90;3.43;;;18.80;99.90;;;;;;5118360;27;21049;-77
2023/07/20 00:12:30;;;;;;;5.37;3.33;;;18.80;99.90;;;;;;5122092;27;21015;-76
2023/07/20 00:14:57;;;;;;;2.67;2.47;;;18.80;99.90;;;;;;5120853;27;20503;-77
2023/07/20 00:17:24;;;;;;;2.40;2.03;;;18.90;99.90;;;;;;5122115;27;20776;-77
2023/07/20 00:19:50;;;;;;;2.73;2.27;;;18.90;99.90;;;;;;5124722;27;20528;-77
2023/07/20 00:22:17;;;;;;;3.73;2.37;;;18.90;99.90;;;;;;5111535;27;21058;-77
2023/07/20 00:24:44;;;;;;;4.40;2.37;;;18.80;99.90;;;;;;5116425;27;20480;-76
2023/07/20 00:27:11;;;;;;;3.13;2.43;;;18.80;99.90;;;;;;5119272;27;20489;-77
2023/07/20 00:29:39;;;;;;;2.10;1.77;;;18.80;99.90;;;;;;5117880;27;21101;-77
2023/07/20 00:32:07;;;;;;;2.33;2.13;;;18.80;99.90;;;;;;5119726;27;20478;-77
2023/07/20 00:34:34;;;;;;;2.77;2.27;;;18.70;99.90;;;;;;5116731;27;20457;-76
2023/07/20 00:37:01;;;;;;;2.93;2.30;;;18.70;99.90;;;;;;5120557;27;21137;-77
2023/07/20 00:39:28;;;;;;;1.70;1.60;;;18.70;99.90;;;;;;5114746;27;20560;-77
2023/07/20 00:41:54;;;;;;;5.10;2.50;;;18.70;99.90;;;;;;5120080;27;21000;-78
2023/07/20 00:44:21;;;;;;;1.97;1.80;;;18.70;99.90;;;;;;5120576;27;20543;-77
2023/07/20 00:46:50;;;;;;;2.10;1.63;;;18.80;99.90;;;;;;5127320;27;20545;-77
2023/07/20 00:49:20;;;;;;;2.20;1.37;;;18.80;99.90;;;;;;5123478;27;20550;-77
2023/07/20 00:51:48;;;;;;;3.90;1.83;;;18.90;99.90;;;;;;5121212;27;20480;-76
2023/07/20 00:54:16;;;;;;;3.77;3.10;;;18.80;99.90;;;;;;5122971;27;20557;-77
2023/07/20 00:56:43;;;;;;;3.93;2.73;;;18.70;99.90;;;;;;5113869;27;20936;-77
2023/07/20 00:59:11;;;;;;;2.73;2.13;;;18.70;99.90;;;;;;5124800;27;20564;-77
2023/07/20 01:01:38;;;;;;;3.37;2.20;;;18.60;99.90;;;;;;5122255;28;21163;-77
2023/07/20 01:04:07;;;;;;;4.30;2.57;;;18.50;99.90;;;;;;5123162;27;20495;-76
2023/07/20 01:06:42;;;;;;;3.17;2.10;;;18.50;99.90;;;;;;5121172;28;20451;-76
2023/07/20 01:09:14;;;;;;;4.10;1.80;;;18.50;99.90;;;;;;5110743;27;21849;-77
2023/07/20 01:11:49;;;;;;;4.63;2.77;;;18.40;99.90;;;;;;5118957;27;20480;-77
2023/07/20 01:14:18;;;;;;;2.97;2.57;;;18.50;99.90;;;;;;5123112;28;20526;-77
2023/07/20 01:16:45;;;;;;;2.50;2.10;;;18.50;99.90;;;;;;5122794;28;20854;-76
2023/07/20 01:19:15;;;;;;;3.40;2.27;;;18.50;99.90;;;;;;5109335;27;20463;-76
2023/07/20 01:21:56;;;;;;;4.70;2.20;;;18.40;99.90;;;;;;5110036;27;20450;-77
2023/07/20 01:24:43;;;;;;;2.03;1.70;;;18.40;99.90;;;;;;5119825;28;20446;-77
2023/07/20 01:27:31;;;;;;;2.17;1.93;;;18.50;99.90;;;;;;5110931;28;20980;-76
2023/07/20 01:30:25;;;;;;;3.17;2.03;;;18.30;99.90;;;;;;5120207;27;20528;-76
2023/07/20 01:32:56;;;;;;;1.50;1.33;;;18.30;99.90;;;;;;5110761;27;20519;-76
2023/07/20 01:35:27;;;;;;;1.93;1.60;;;18.20;99.90;;;;;;5116486;28;20449;-76
2023/07/20 01:37:55;;;;;;;3.67;2.13;;;18.20;99.90;;;;;;5119902;28;20462;-77
2023/07/20 01:40:25;;;;;;;3.30;2.00;;;18.20;99.90;;;;;;5119659;27;20548;-77
2023/07/20 01:42:52;;;;;;;2.90;1.83;;;18.10;99.90;;;;;;5116664;28;20463;-78
2023/07/20 01:45:19;;;;;;;4.30;1.90;;;18.10;99.90;;;;;;5114791;28;20536;-76
2023/07/20 01:47:46;;;;;;;2.03;1.73;;;18.20;99.90;;;;;;5121282;28;20555;-77
2023/07/20 01:50:15;;;;;;;4.70;1.30;;;18.30;99.90;;;;;;5121245;27;20487;-76
2023/07/20 01:52:42;;;;;;;3.33;1.73;;;18.40;99.90;;;;;;5110874;27;20483;-76
2023/07/20 01:55:09;;;;;;;2.50;2.30;;;18.40;99.90;;;;;;5108980;28;21043;-76
2023/07/20 01:57:36;;;;;;;1.63;1.13;;;18.40;99.90;;;;;;5117769;28;20476;-77
2023/07/20 02:00:03;;;;;;;2.97;1.73;;;18.40;99.90;;;;;;5122495;27;21195;-77
2023/07/20 02:02:30;;;;;;;2.77;1.93;;;18.40;99.90;;;;;;5111816;27;20501;-77
2023/07/20 02:04:57;;;;;;;3.83;1.83;;;18.40;99.90;;;;;;5128594;27;20492;-77
2023/07/20 02:07:26;;;;;;;1.73;1.33;;;18.50;99.90;;;;;;5119790;27;20709;-77
2023/07/20 02:09:53;;;;;;;1.90;1.40;;;18.50;99.90;;;;;;5122357;27;20435;-76
2023/07/20 02:12:20;;;;;;;1.53;1.40;;;18.50;99.90;;;;;;5115526;27;20607;-76
2023/07/20 02:14:47;;;;;;;2.53;1.73;;;18.60;99.90;;;;;;5117769;27;21205;-76
2023/07/20 02:17:14;;;;;;;2.33;2.13;;;18.60;99.90;;;;;;5117970;27;20453;-76
2023/07/20 02:19:42;;;;;;;3.03;1.20;;;18.60;99.90;;;;;;5111481;27;20901;-76
2023/07/20 02:22:09;;;;;;;1.93;1.37;;;18.60;99.90;;;;;;5117740;27;20519;-76
2023/07/20 02:24:37;;;;;;;4.33;1.53;;;18.70;99.90;;;;;;5124104;27;21034;-78
2023/07/20 02:27:05;;;;;;;1.70;1.60;;;18.60;99.90;;;;;;5118059;27;20504;-76
2023/07/20 02:29:32;;;;;;;1.40;1.30;;;18.50;99.90;;;;;;5119089;27;20445;-76
2023/07/20 02:31:58;;;;;;;1.80;1.30;;;18.50;99.90;;;;;;5123745;27;20639;-76
2023/07/20 02:34:25;;;;;;;1.83;1.50;;;18.40;99.90;;;;;;5116696;27;20494;-76
2023/07/20 02:36:52;;;;;;;1.63;1.13;;;18.40;99.90;;;;;;5125215;27;20462;-75
2023/07/20 02:39:19;;;;;;;3.07;1.87;;;18.20;99.90;;;;;;5114127;27;20550;-77
2023/07/20 02:41:48;;;;;;;1.33;1.23;;;18.20;99.90;;;;;;5114917;27;20858;-76
2023/07/20 02:44:15;;;;;;;2.00;1.90;;;18.20;99.90;;;;;;5118480;27;20442;-76
2023/07/20 02:46:42;;;;;;;2.20;1.43;;;18.00;99.90;;;;;;5119864;27;20497;-76
2023/07/20 02:49:09;;;;;;;1.47;1.37;;;18.00;99.90;;;;;;5121056;27;20492;-77
2023/07/20 02:51:36;;;;;;;1.50;1.30;;;18.00;99.90;;;;;;5124091;27;20536;-77
2023/07/20 02:54:03;;;;;;;2.60;1.77;;;18.00;99.90;;;;;;5115993;27;20590;-76
2023/07/20 02:56:30;;;;;;;1.50;1.40;;;18.00;99.90;;;;;;5117045;27;20540;-76
2023/07/20 02:58:58;;;;;;;1.53;1.10;;;18.00;99.90;;;;;;5124191;27;20542;-77
2023/07/20 03:01:29;;;;;;;3.30;1.40;;;18.00;99.90;;;;;;5121341;27;20454;-77
2023/07/20 03:03:56;;;;;;;3.80;1.50;;;18.00;99.90;;;;;;5117633;27;20460;-76
2023/07/20 03:06:22;;;;;;;1.30;1.10;;;18.00;99.90;;;;;;5118841;27;20513;-77
2023/07/20 03:08:53;;;;;;;2.30;1.63;;;18.00;99.90;;;;;;5120696;27;20491;-77
2023/07/20 03:11:21;;;;;;;2.03;1.53;;;17.90;99.90;;;;;;5115098;27;20812;-77
2023/07/20 03:13:48;;;;;;;2.00;1.50;;;17.90;99.90;;;;;;5122941;27;20491;-77
2023/07/20 03:16:19;;;;;;;1.67;1.20;;;17.90;99.90;;;;;;5113891;27;21521;-76
2023/07/20 03:18:46;;;;;;;2.27;2.07;;;18.00;99.90;;;;;;5126917;27;20491;-76
2023/07/20 03:21:14;;;;;;;3.13;1.63;;;18.00;99.90;;;;;;5118646;27;20540;-76
2023/07/20 03:23:41;;;;;;;2.23;1.97;;;18.10;99.90;;;;;;5125285;27;20532;-76
2023/07/20 03:26:09;;;;;;;2.37;1.53;;;18.10;99.90;;;;;;5125217;27;20536;-76
2023/07/20 03:28:36;;;;;;;1.90;1.70;;;18.20;99.90;;;;;;5121177;27;20483;-76
2023/07/20 03:31:02;;;;;;;3.60;2.23;;;18.20;99.90;;;;;;5119426;27;21081;-76
2023/07/20 03:33:32;;;;;;;4.00;2.20;;;18.20;99.90;;;;;;5121595;27;20517;-77
2023/07/20 03:35:59;;;;;;;1.73;1.37;;;18.20;99.90;;;;;;5124477;27;21167;-76
2023/07/20 03:38:27;;;;;;;2.73;2.10;;;18.10;99.90;;;;;;5121303;27;20551;-77
2023/07/20 03:40:55;;;;;;;2.53;2.00;;;18.10;99.90;;;;;;5117931;27;21192;-76
2023/07/20 03:43:25;;;;;;;3.27;1.50;;;18.20;99.90;;;;;;5109060;27;20990;-75
2023/07/20 03:45:52;;;;;;;2.00;1.90;;;18.20;99.90;;;;;;5113204;27;20445;-76
2023/07/20 03:48:21;;;;;;;1.40;1.30;;;18.30;99.90;;;;;;5109921;27;20473;-75
2023/07/20 03:50:51;;;;;;;3.13;1.47;;;18.20;99.90;;;;;;5116320;27;20442;-76
2023/07/20 03:53:18;;;;;;;1.40;1.23;;;18.10;99.90;;;;;;5118049;27;21080;-77
2023/07/20 03:55:46;;;;;;;2.53;2.13;;;18.10;99.90;;;;;;5115103;27;20799;-77
2023/07/20 03:58:13;;;;;;;4.50;2.53;;;18.20;99.90;;;;;;5121711;27;20478;-76
2023/07/20 04:00:40;;;;;;;1.40;1.23;;;18.20;99.90;;;;;;5116383;27;20453;-76
2023/07/20 04:03:07;;;;;;;1.40;1.30;;;18.30;99.90;;;;;;5114411;27;20485;-76
2023/07/20 04:05:34;;;;;;;1.30;1.10;;;18.40;99.90;;;;;;5127162;27;20537;-77
2023/07/20 04:08:02;;;;;;;5.47;1.90;;;18.40;99.90;;;;;;5117909;27;20497;-80
2023/07/20 04:10:29;;;;;;;3.27;1.27;;;18.50;99.90;;;;;;5116861;27;20473;-77
2023/07/20 04:12:56;;;;;;;1.70;1.60;;;18.60;99.90;;;;;;5116422;27;20485;-76
2023/07/20 04:15:23;;;;;;;1.70;1.30;;;18.70;99.90;;;;;;5126089;27;20453;-76
2023/07/20 04:17:50;;;;;;;1.83;1.67;;;18.80;99.90;;;;;;5115801;27;21291;-77
2023/07/20 04:20:17;;;;;;;1.80;1.50;;;18.80;99.90;;;;;;5115973;27;20545;-78
2023/07/20 04:22:45;;;;;;;1.90;1.57;;;18.80;99.90;;;;;;5118142;27;20445;-76
2023/07/20 04:25:13;;;;;;;4.30;2.43;;;18.80;99.90;;;;;;5112222;27;20548;-77
2023/07/20 04:27:40;;;;;;;2.70;2.00;;;18.80;99.90;;;;;;5125826;27;20532;-76
2023/07/20 04:30:09;;;;;;;2.70;2.23;;;18.90;99.90;;;;;;5125804;27;20529;-77
2023/07/20 04:32:36;;;;;;;2.50;1.70;;;18.90;99.90;;;;;;5121468;27;20509;-76
2023/07/20 04:35:07;;;;;;;1.50;1.40;;;18.90;99.90;;;;;;5123419;27;20454;-77
2023/07/20 04:37:34;;;;;;;3.07;1.47;;;18.80;99.90;;;;;;5118044;27;20532;-77
2023/07/20 04:40:02;;;;;;;1.13;0.90;;;19.00;99.90;;;;;;5117886;27;20549;-77
2023/07/20 04:42:30;;;;;;;3.57;1.40;;;19.00;99.90;;;;;;5121780;27;20489;-77
2023/07/20 04:44:57;;;;;;;2.27;1.30;;;19.10;99.90;;;;;;5123738;27;20470;-77
2023/07/20 04:47:24;;;;;;;1.90;1.80;;;19.10;99.90;;;;;;5119883;27;20480;-77
2023/07/20 04:49:51;;;;;;;1.40;1.30;;;19.10;99.90;;;;;;5116450;27;20481;-77
2023/07/20 04:52:18;;;;;;;4.00;1.53;;;19.20;99.90;;;;;;5118600;27;20486;-76
2023/07/20 04:54:44;;;;;;;2.17;1.80;;;19.30;99.90;;;;;;5118401;27;20572;-76
2023/07/20 04:57:12;;;;;;;1.60;1.43;;;19.40;99.90;;;;;;5115170;27;21044;-76
2023/07/20 04:59:41;;;;;;;2.93;1.23;;;19.40;99.90;;;;;;5109376;27;20529;-77
2023/07/20 05:02:08;;;;;;;2.63;1.53;;;19.40;99.90;;;;;;5112296;27;21071;-77
2023/07/20 05:04:35;;;;;;;7.40;2.30;;;19.50;99.90;;;;;;5124948;28;20568;-77
2023/07/20 05:07:02;;;;;;;2.13;1.60;;;19.50;99.90;;;;;;5126774;28;20494;-77
2023/07/20 05:09:28;;;;;;;2.10;1.77;;;19.40;99.90;;;;;;5126734;28;20476;-76
2023/07/20 05:11:55;;;;;;;3.40;1.17;;;19.50;99.90;;;;;;5123872;28;20476;-76
2023/07/20 05:14:22;;;;;;;2.50;1.77;;;19.60;99.90;;;;;;5113979;27;20570;-77
2023/07/20 05:16:51;;;;;;;2.83;1.83;;;19.70;99.90;;;;;;5120620;27;20537;-76
2023/07/20 05:19:17;;;;;;;3.03;1.60;;;19.70;99.90;;;;;;5119384;28;20549;-77
2023/07/20 05:21:44;;;;;;;1.30;1.20;;;19.80;99.90;;;;;;5118538;28;20535;-76
2023/07/20 05:24:11;;;;;;;1.70;1.47;;;19.90;99.90;;;;;;5126133;27;20564;-76
2023/07/20 05:26:39;;;;;;;1.67;1.57;;;19.90;99.90;;;;;;5116592;28;20533;-76
2023/07/20 05:29:05;;;;;;;3.73;1.83;;;19.70;99.90;;;;;;5123909;28;20510;-76
2023/07/20 05:31:32;;;;;;;4.80;1.70;;;19.80;99.90;;;;;;5111209;27;20473;-76
2023/07/20 05:34:01;;;;;;;3.60;1.80;;;20.00;99.90;;;;;;5114550;27;20482;-76
2023/07/20 05:36:28;;;;;;;2.50;1.70;;;20.10;99.90;;;;;;5119500;27;20491;-77
2023/07/20 05:38:54;;;;;;;1.80;1.33;;;20.40;99.90;;;;;;5122796;27;20537;-76
2023/07/20 05:41:22;;;;;;;4.50;1.70;;;20.60;99.90;;;;;;5122030;27;20456;-77
2023/07/20 05:43:49;;;;;;;6.07;1.57;;;20.80;99.90;;;;;;5118660;27;20473;-77
2023/07/20 05:46:16;;;;;;;7.30;2.33;;;21.00;99.90;;;;;;5122400;27;21140;-76
2023/07/20 05:48:43;;;;;;;3.00;2.80;;;21.10;99.90;;;;;;5112658;27;20545;-78
2023/07/20 05:51:11;;;;;;;2.20;2.10;;;21.10;99.90;;;;;;5123768;27;20454;-77
2023/07/20 05:53:39;;;;;;;2.00;1.80;;;21.20;99.90;;;;;;5116873;27;21051;-76
2023/07/20 05:56:09;;;;;;;2.30;2.10;;;21.20;99.90;;;;;;5117234;27;20477;-77
2023/07/20 05:58:36;;;;;;;1.87;1.67;;;21.20;99.90;;;;;;5116074;27;20569;-76
2023/07/20 06:01:06;;;;;;;1.93;1.27;;;21.20;99.90;;;;;;5115685;27;20550;-77
2023/07/20 06:03:34;;;;;;;5.07;1.90;;;21.20;99.90;;;;;;5121734;27;20536;-76
2023/07/20 06:06:01;;;;;;;3.67;1.60;;;21.20;99.90;;;;;;5128105;27;20453;-76
2023/07/20 06:08:30;;;;;;;2.23;2.03;;;21.20;99.90;;;;;;5128428;27;20460;-76
2023/07/20 06:10:57;;;;;;;1.93;1.83;;;21.00;99.90;;;;;;5129669;27;20484;-76
2023/07/20 06:13:25;;;;;;;2.33;1.30;;;20.80;99.90;;;;;;5122090;27;20540;-76
2023/07/20 06:15:52;;;;;;;1.50;1.40;;;20.60;99.90;;;;;;5123095;27;20997;-76
2023/07/20 06:18:20;;;;;;;1.67;1.37;;;20.60;99.90;;;;;;5118691;27;20461;-76
2023/07/20 06:20:51;;;;;;;3.17;2.40;;;20.50;99.90;;;;;;5130318;27;20446;-76
2023/07/20 06:23:18;;;;;;;1.70;1.60;;;20.60;99.90;;;;;;5129652;27;20445;-76
2023/07/20 06:25:49;;;;;;;6.23;2.20;;;20.80;99.90;;;;;;5129777;27;20532;-76
2023/07/20 06:28:16;;;;;;;3.30;2.23;;;20.70;99.90;;;;;;5122246;27;20538;-76
2023/07/20 06:30:42;;;;;;;3.07;1.60;;;20.90;99.90;;;;;;5129975;27;20487;-76
2023/07/20 06:33:09;;;;;;;1.30;1.20;;;20.80;99.90;;;;;;5123770;27;20556;-76
2023/07/20 06:35:36;;;;;;;2.10;1.67;;;20.90;99.90;;;;;;5120276;27;20513;-76
2023/07/20 06:38:03;;;;;;;1.00;0.90;;;20.90;99.90;;;;;;5118230;27;20541;-76
2023/07/20 06:40:30;;;;;;;2.80;1.20;;;20.90;99.90;;;;;;5118149;27;20487;-75
2023/07/20 06:42:59;;;;;;;1.37;1.13;;;20.90;99.90;;;;;;5116390;27;21010;-76
2023/07/20 06:45:25;;;;;;;2.50;1.93;;;21.10;99.90;;;;;;5125563;27;20485;-76
2023/07/20 06:47:52;;;;;;;3.80;3.50;;;21.20;99.90;;;;;;5125517;27;20541;-76
2023/07/20 06:50:19;;;;;;;3.63;1.63;;;21.40;99.90;;;;;;5119868;27;20962;-76
2023/07/20 06:52:47;;;;;;;1.47;1.10;;;21.50;99.90;;;;;;5121679;27;20568;-76
2023/07/20 06:55:15;;;;;;;1.47;1.20;;;21.30;99.90;;;;;;5123594;27;20542;-76
2023/07/20 06:57:42;;;;;;;1.30;1.20;;;21.30;99.90;;;;;;5119437;27;20518;-76
2023/07/20 07:00:12;;;;;;;1.90;1.40;;;21.70;99.90;;;;;;5127825;27;20539;-76
2023/07/20 07:02:39;;;;;;;1.50;1.10;;;21.80;99.90;;;;;;5124204;27;20447;-75
2023/07/20 07:05:07;;;;;;;2.20;1.73;;;21.60;99.90;;;;;;5111976;27;20516;-76
2023/07/20 07:07:34;;;;;;;1.80;1.70;;;21.40;99.90;;;;;;5119226;27;20430;-75
2023/07/20 07:10:03;;;;;;;2.20;1.63;;;21.10;99.90;;;;;;5125814;27;20461;-76
2023/07/20 07:12:30;;;;;;;2.80;1.30;;;21.10;99.90;;;;;;5122605;27;20495;-76
2023/07/20 07:14:57;;;;;;;2.90;1.50;;;21.20;99.90;;;;;;5121749;27;21063;-76
2023/07/20 07:17:26;;;;;;;3.53;1.33;;;21.10;99.90;;;;;;5127020;27;20465;-76
2023/07/20 07:19:54;;;;;;;6.23;2.13;;;21.10;99.90;;;;;;5124840;27;20473;-76
2023/07/20 07:22:21;;;;;;;1.07;0.90;;;21.20;99.90;;;;;;5116784;27;20965;-75
2023/07/20 07:24:48;;;;;;;1.57;1.10;;;21.10;99.90;;;;;;5116545;27;21007;-76
2023/07/20 07:27:16;;;;;;;3.83;2.50;;;21.20;99.90;;;;;;5123239;27;20454;-76
2023/07/20 07:29:44;;;;;;;1.77;1.37;;;21.40;99.90;;;;;;5123260;27;20472;-76
2023/07/20 07:32:11;;;;;;;2.60;1.90;;;21.50;99.90;;;;;;5126824;27;21094;-76
2023/07/20 07:34:39;;;;;;;2.73;1.93;;;21.40;99.90;;;;;;5125067;27;20497;-76
2023/07/20 07:37:06;;;;;;;3.47;1.47;;;21.30;99.90;;;;;;5122378;27;20735;-76
2023/07/20 07:39:33;;;;;;;3.07;1.23;;;21.30;99.90;;;;;;5124536;27;20537;-75
2023/07/20 07:42:00;;;;;;;2.50;1.70;;;21.10;99.90;;;;;;5126246;27;20950;-76
2023/07/20 07:44:27;;;;;;;4.20;1.60;;;21.20;99.90;;;;;;5121678;27;20489;-76
2023/07/20 07:46:54;;;;;;;1.83;0.80;;;21.50;99.90;;;;;;5121387;27;20470;-76
2023/07/20 07:49:21;;;;;;;1.20;1.03;;;21.30;99.90;;;;;;5118065;27;20497;-77
2023/07/20 07:51:49;;;;;;;2.27;1.50;;;21.20;99.90;;;;;;5126898;27;20577;-76
2023/07/20 07:54:16;;;;;;;1.00;0.90;;;21.10;99.90;;;;;;5117421;27;20517;-76
2023/07/20 07:56:44;;;;;;;2.50;1.20;;;21.20;99.90;;;;;;5118153;27;20528;-76
2023/07/20 07:59:11;;;;;;;1.40;0.80;;;21.30;99.90;;;;;;5115180;27;20450;-76
2023/07/20 08:01:38;;;;;;;2.77;1.10;;;21.30;99.90;;;;;;5122869;27;20494;-76
2023/07/20 08:04:05;;;;;;;3.60;2.00;;;21.30;99.90;;;;;;5120839;27;20845;-76
2023/07/20 08:06:32;;;;;;;1.60;1.30;;;21.30;99.90;;;;;;5124888;27;20871;-76
2023/07/20 08:09:00;;;;;;;1.43;1.17;;;21.50;99.90;;;;;;5124569;27;20446;-77
2023/07/20 08:11:27;;;;;;;3.03;1.47;;;21.30;99.90;;;;;;5112678;27;20490;-76
2023/07/20 08:13:54;;;;;;;2.40;1.90;;;21.30;99.90;;;;;;5118948;27;20461;-76
2023/07/20 08:16:21;;;;;;;1.53;1.00;;;21.30;99.90;;;;;;5112970;27;20535;-76
2023/07/20 08:18:48;;;;;;;2.07;1.60;;;21.30;99.90;;;;;;5120725;27;20771;-76
2023/07/20 08:21:15;;;;;;;1.70;0.70;;;21.50;99.90;;;;;;5112528;27;20449;-76
2023/07/20 08:23:42;;;;;;;2.50;1.20;;;21.70;99.90;;;;;;5126421;27;20537;-76
2023/07/20 08:26:10;;;;;;;1.77;1.27;;;21.60;99.90;;;;;;5121731;27;20459;-77
2023/07/20 08:28:37;;;;;;;1.30;1.00;;;21.50;99.90;;;;;;5119899;27;20517;-76
2023/07/20 08:31:07;;;;;;;1.63;1.07;;;21.20;99.90;;;;;;5125747;27;20528;-76
2023/07/20 08:33:34;;;;;;;1.50;0.90;;;20.90;99.90;;;;;;5115488;27;20461;-76
2023/07/20 08:36:03;;;;;;;2.37;0.97;;;20.90;99.90;;;;;;5120090;27;20490;-76
2023/07/20 08:38:30;;;;;;;2.00;0.80;;;20.70;99.90;;;;;;5120144;27;20441;-77
2023/07/20 08:40:59;;;;;;;1.50;1.00;;;20.70;99.90;;;;;;5120717;27;20493;-76
2023/07/20 08:43:29;;;;;;;3.10;0.93;;;20.80;99.90;;;;;;5118810;27;20490;-76
2023/07/20 08:45:56;;;;;;;1.33;0.77;;;20.80;99.90;;;;;;5117478;27;21014;-76
2023/07/20 08:48:24;;;;;;;0.83;0.70;;;20.70;99.90;;;;;;5112978;27;20537;-76
2023/07/20 08:50:53;;;;;;;1.13;0.80;;;20.90;99.90;;;;;;5117913;27;20441;-76
2023/07/20 08:53:20;;;;;;;1.63;1.00;;;21.10;99.90;;;;;;5122915;27;20445;-75
2023/07/20 08:55:50;;;;;;;1.20;0.87;;;21.40;99.90;;;;;;5121805;27;20489;-76
2023/07/20 08:58:18;;;;;;;1.37;1.27;;;21.80;99.90;;;;;;5118448;27;20476;-76
2023/07/20 09:00:51;;;;;;;1.47;0.70;;;22.00;99.90;;;;;;5123211;27;20508;-76
2023/07/20 09:03:19;;;;;;;3.47;0.90;;;22.40;99.90;;;;;;5118644;27;20453;-76
2023/07/20 09:05:46;;;;;;;0.70;0.60;;;22.80;99.90;;;;;;5124497;28;20459;-76
2023/07/20 09:08:13;;;;;;;1.30;0.80;;;23.40;99.90;;;;;;5119150;28;20471;-76
2023/07/20 09:10:40;;;;;;;1.27;0.97;;;23.80;99.90;;;;;;5122743;27;20470;-76
2023/07/20 09:13:07;;;;;;;1.23;1.00;;;23.60;99.90;;;;;;5125343;27;20478;-76
2023/07/20 09:15:34;;;;;;;1.00;0.60;;;23.60;99.60;;;;;;5119436;27;20558;-78
2023/07/20 09:18:04;;;;;;;3.40;0.77;;;23.40;99.90;;;;;;5127184;27;20484;-76
2023/07/20 09:20:34;;;;;;;1.33;0.80;;;23.30;99.20;;;;;;5122218;27;20456;-76
2023/07/20 09:23:05;;;;;;;2.53;1.03;;;23.60;99.50;;;;;;5121939;27;20436;-77
2023/07/20 09:25:32;;;;;;;2.47;0.90;;;23.70;97.70;;;;;;5121547;27;20482;-77
2023/07/20 09:28:04;;;;;;;0.90;0.70;;;23.90;98.20;;;;;;5118149;27;20502;-76
2023/07/20 09:30:30;;;;;;;0.90;0.73;;;23.40;97.70;;;;;;5119751;27;20450;-77
2023/07/20 09:32:58;;;;;;;2.37;0.80;;;23.10;97.60;;;;;;5119343;27;21103;-78
2023/07/20 09:35:26;;;;;;;0.70;0.70;;;23.30;99.30;;;;;;5124769;27;20489;-75
2023/07/20 09:37:56;;;;;;;0.90;0.60;;;23.40;99.20;;;;;;5128146;27;20475;-76
2023/07/20 09:40:23;;;;;;;1.43;0.80;;;23.90;97.90;;;;;;5115763;27;20491;-76
2023/07/20 09:42:53;;;;;;;1.00;0.80;;;23.80;96.90;;;;;;5129567;27;20532;-75
2023/07/20 09:45:20;;;;;;;1.63;0.80;;;23.50;96.50;;;;;;5120702;27;20995;-75
2023/07/20 09:47:47;;;;;;;0.70;0.70;;;23.30;97.10;;;;;;5122897;27;20487;-75
2023/07/20 09:50:14;;;;;;;0.93;0.93;;;23.60;97.40;;;;;;5126271;27;20541;-76
2023/07/20 09:52:44;;;;;;;1.80;0.80;;;23.60;96.70;;;;;;5127888;27;20503;-75
2023/07/20 09:55:12;;;;;;;1.37;0.80;;;23.50;97.00;;;;;;5122653;27;20479;-75
2023/07/20 09:57:39;;;;;;;1.00;0.90;;;24.00;97.80;;;;;;5124879;27;20553;-75
2023/07/20 10:00:12;;;;;;;0.73;0.57;;;24.20;97.00;;;;;;5109871;27;20447;-76
2023/07/20 10:02:44;;;;;;;1.00;0.90;;;23.30;95.80;;;;;;5119559;27;20457;-75
2023/07/20 10:05:13;;;;;;;2.20;1.07;;;22.70;97.30;;;;;;5125365;27;20456;-76
2023/07/20 10:07:47;;;;;;;0.90;0.70;;;22.60;98.50;;;;;;5126239;27;20495;-76
2023/07/20 10:10:17;;;;;;;0.87;0.60;;;23.20;98.00;;;;;;5122276;27;20479;-75
2023/07/20 10:12:47;;;;;;;2.33;1.30;;;23.60;96.80;;;;;;5124126;27;20526;-75
2023/07/20 10:15:19;;;;;;;1.27;1.17;;;23.90;95.60;;;;;;5118608;27;20588;-76
2023/07/20 10:18:00;;;;;;;1.90;0.87;;;24.00;95.40;;;;;;5117206;27;20947;-75
2023/07/20 10:20:29;;;;;;;0.90;0.60;;;23.90;95.70;;;;;;5128960;27;20468;-76
2023/07/20 10:22:58;;;;;;;1.73;0.70;;;24.60;95.10;;;;;;5120827;27;20471;-76
2023/07/20 10:25:25;;;;;;;1.60;0.60;;;24.90;95.40;;;;;;5116953;27;20493;-77
2023/07/20 10:27:52;;;;;;;2.00;0.80;;;25.40;94.30;;;;;;5120931;27;20556;-77
2023/07/20 10:30:20;;;;;;;1.03;0.53;;;26.00;90.40;;;;;;5110558;27;20494;-77
2023/07/20 10:32:48;;;;;;;0.90;0.70;;;26.20;90.00;;;;;;5119072;27;20442;-77
2023/07/20 10:35:17;;;;;;;3.83;0.60;;;25.30;84.10;;;;;;5117567;27;20566;-76
2023/07/20 10:37:49;;;;;;;1.57;0.70;;;24.60;85.70;;;;;;5122295;27;21302;-76
2023/07/20 10:40:30;;;;;;;0.80;0.70;;;24.20;89.10;;;;;;5120581;27;20455;-76
2023/07/20 10:43:01;;;;;;;1.57;0.60;;;23.90;90.50;;;;;;5111489;27;21204;-76
2023/07/20 10:45:41;;;;;;;1.00;0.70;;;23.70;91.50;;;;;;5125882;27;20528;-76
2023/07/20 10:48:15;;;;;;;1.40;0.73;;;23.50;93.10;;;;;;5115013;27;20517;-76
2023/07/20 10:50:43;;;;;;;1.00;0.73;;;23.40;94.60;;;;;;5117543;27;21259;-76
2023/07/20 10:53:15;;;;;;;1.37;0.90;;;23.30;93.70;;;;;;5118243;27;20452;-76
2023/07/20 10:55:46;;;;;;;0.80;0.80;;;23.40;93.30;;;;;;5108396;27;21076;-78
2023/07/20 10:58:14;;;;;;;1.50;0.70;;;23.60;93.60;;;;;;5118070;27;20527;-77
2023/07/20 11:00:59;;;;;;;1.07;0.70;;;23.90;92.80;;;;;;5125243;27;20466;-77
2023/07/20 11:03:30;;;;;;;1.30;0.80;;;24.00;91.90;;;;;;5121425;27;20813;-76
2023/07/20 11:05:58;;;;;;;0.90;0.70;;;24.10;90.80;;;;;;5125759;27;21070;-76
2023/07/20 11:08:42;;;;;;;2.53;0.70;;;24.30;91.50;;;;;;5121941;27;20472;-77
2023/07/20 11:11:27;;;;;;;1.10;0.67;;;24.50;90.70;;;;;;5119535;27;20782;-77
2023/07/20 11:13:58;;;;;;;2.20;0.80;;;24.30;88.20;;;;;;5122064;27;20496;-77
2023/07/20 11:16:40;;;;;;;0.80;0.70;;;24.10;90.30;;;;;;5121039;27;20579;-77
2023/07/20 11:19:15;;;;;;;0.90;0.60;;;24.00;90.10;;;;;;5119339;27;20822;-76
2023/07/20 11:21:44;;;;;;;2.40;0.90;;;24.30;90.20;;;;;;5122153;27;20480;-77
2023/07/20 11:24:13;;;;;;;0.80;0.60;;;24.30;90.20;;;;;;5128276;27;20481;-77
2023/07/20 11:26:46;;;;;;;1.13;0.63;;;24.80;91.80;;;;;;5118847;27;20492;-77
2023/07/20 11:29:13;;;;;;;1.57;0.80;;;25.20;90.50;;;;;;5127410;27;21048;-77
2023/07/20 11:31:41;;;;;;;1.10;0.50;;;25.00;87.30;;;;;;5117109;27;20556;-77
2023/07/20 11:34:10;;;;;;;1.43;0.60;;;24.80;89.80;;;;;;5117930;27;20532;-77
2023/07/20 11:36:37;;;;;;;2.83;0.80;;;25.00;89.10;;;;;;5118746;27;21077;-78
2023/07/20 11:39:04;;;;;;;3.70;0.93;;;24.60;90.30;;;;;;5122418;27;20873;-76
2023/07/20 11:41:32;;;;;;;0.70;0.60;;;24.40;89.10;;;;;;5110446;27;20506;-77
2023/07/20 11:44:01;;;;;;;0.60;0.60;;;24.20;89.20;;;;;;5116249;27;20453;-77
2023/07/20 11:46:30;;;;;;;2.10;0.80;;;24.00;87.60;;;;;;5115125;27;21626;-77
2023/07/20 11:48:59;;;;;;;2.60;0.80;;;24.10;90.10;;;;;;5119833;27;21038;-77
2023/07/20 11:51:27;;;;;;;1.30;1.00;;;24.30;90.50;;;;;;5120998;27;20460;-77
2023/07/20 11:53:54;;;;;;;1.07;0.60;;;24.60;91.20;;;;;;5119235;27;20922;-76
2023/07/20 11:56:22;;;;;;;1.97;1.80;;;24.70;91.60;;;;;;5126303;27;20517;-77
2023/07/20 11:58:49;;;;;;;0.90;0.70;;;25.00;91.00;;;;;;5120587;27;20438;-77
2023/07/20 12:01:20;;;;;;;1.43;0.60;;;25.00;88.30;;;;;;5119238;27;20544;-77
2023/07/20 12:03:48;;;;;;;0.70;0.70;;;24.90;82.30;;;;;;5119609;27;20468;-77
2023/07/20 12:06:15;;;;;;;1.13;0.50;;;25.10;81.30;;;;;;5125427;27;20479;-77
2023/07/20 12:08:44;;;;;;;1.90;0.60;;;25.10;79.90;;;;;;5126068;27;20484;-76
2023/07/20 12:11:12;;;;;;;1.47;0.60;;;25.80;80.90;;;;;;5122146;27;20468;-76
2023/07/20 12:13:40;;;;;;;3.13;0.77;;;25.80;76.70;;;;;;5124477;27;20444;-77
2023/07/20 12:16:14;;;;;;;2.20;0.70;;;25.10;77.90;;;;;;5120967;27;21117;-78
2023/07/20 12:18:42;;;;;;;0.63;0.43;;;25.10;81.70;;;;;;5119179;27;21072;-76
2023/07/20 12:21:09;;;;;;;1.10;0.93;;;25.20;77.00;;;;;;5123131;27;20480;-77
2023/07/20 12:23:38;;;;;;;2.23;0.67;;;25.60;77.80;;;;;;5122830;27;20541;-78
2023/07/20 12:26:08;;;;;;;0.93;0.87;;;25.80;76.30;;;;;;5116334;27;20468;-77
2023/07/20 12:28:39;;;;;;;3.20;0.80;;;26.30;79.60;;;;;;5119705;27;20473;-77
2023/07/20 12:31:06;;;;;;;2.67;1.03;;;26.50;75.50;;;;;;5117646;27;20481;-78
2023/07/20 12:33:33;;;;;;;1.20;0.60;;;26.50;73.30;;;;;;5117682;27;20532;-76
2023/07/20 12:36:01;;;;;;;1.17;0.57;;;26.70;72.10;;;;;;5123684;27;20478;-78
2023/07/20 12:38:30;;;;;;;0.90;0.70;;;26.30;72.80;;;;;;5124044;27;20445;-77
2023/07/20 12:40:58;;;;;;;1.57;0.57;;;26.10;72.90;;;;;;5124472;27;20506;-77
2023/07/20 12:43:25;;;;;;;1.43;0.80;;;26.00;72.80;;;;;;5118167;27;20454;-77
2023/07/20 12:45:52;;;;;;;1.03;0.77;;;25.90;73.60;;;;;;5114963;27;20463;-77
2023/07/20 12:48:19;;;;;;;1.57;0.70;;;26.00;76.20;;;;;;5121246;27;21041;-76
2023/07/20 12:50:46;;;;;;;0.70;0.63;;;26.20;73.90;;;;;;5120436;27;20521;-78
2023/07/20 12:53:15;;;;;;;2.00;0.80;;;26.20;76.50;;;;;;5121183;27;20453;-77